CYQG

Windsor Airport

Windsor, , Canada
METAR CYQG 181700Z 24007KT 220V310 15SM FEW280 29/19 A2990 RMK CI1 CI TR SLP125 DENSITY ALT 2500FT
Observed Flight Rules
Sep-18 @ 17:00 UTC (33 minutes ago) Visual Flight Rules
Wind Visibility Clouds
240° at 7 knots 15 miles
  • Few at 28,000' AGL
Temperatures Readings
Current 29°C / 84°F
Dewpoint 19°C / 66°F
Humidity 55%
Altimeter 29.9" Hg
Pressure 1012.5 hPa
Elevation 190
METAR CYQG 181700Z 24007KT 220V310 15SM FEW280 29/19 A2990 RMK CI1 CI TR SLP125 DENSITY ALT 2500FT
Observed Flight Rules
Sep-18 @ 17:00 UTC
(33 minutes ago)
VFR
Wind Visibility
240° at 7 knots 15 miles
Clouds
  • Few at 28,000' AGL
Temperature Dewpoint
29°C / 84°F 19°C / 66°F
Humidity Altimeter Pressure
55% 29.9" Hg 1012.5 hPa